Weather reports worldwide

Advertisment
Melle, Belgium (6434): temperature & dewpoint: 20.10.2020 11:00:00 - 26.10.2020 11:00:00 (CET)Melle, Belgium (6434): wind speed & gusts: 20.10.2020 11:00:00 - 26.10.2020 11:00:00 (CET)Melle, Belgium (6434): wind direction: 20.10.2020 11:00:00 - 26.10.2020 11:00:00 (CET)Melle, Belgium (6434): reduced air pressure: 20.10.2020 11:00:00 - 26.10.2020 11:00:00 (CET)Melle, Belgium (6434): sunshine duration: 20.10.2020 11:00:00 - 26.10.2020 11:00:00 (CET)Melle, Belgium (6434): precipitation: 20.10.2020 11:00:00 - 26.10.2020 11:00:00 (CET)
Date & Time tt [°C] td [°C] ff [km/h] ff [kn] fx [km/h] fx [kn] dd ppp [hPa] sd [min] rr [mm]
26.10.2020 11:00:00 - - - - - - - - - -
26.10.2020 10:00:00 9,5 6,7 25 13 49 26 SW 1001,6 21 0,0
26.10.2020 09:00:00 8,8 6,3 21 12 36 19 SSW 1001,3 0 0,0
26.10.2020 08:00:00 8,5 6,0 20 11 38 20 SSW 1001,3 0 0,0
26.10.2020 07:00:00 8,9 6,4 25 14 39 21 SSW 1000,6 0 0,0
26.10.2020 06:00:00 9,0 6,8 21 11 29 16 SSW 1000,4 0 0,0
26.10.2020 05:00:00 8,9 7,2 17 9 27 15 SSW 999,9 0 0,0
26.10.2020 04:00:00 9,0 7,2 17 9 30 16 SSW 1000,2 0 0,0
26.10.2020 03:00:00 8,8 7,3 16 9 25 14 SSW 1000,1 0 0,0
26.10.2020 02:00:00 9,1 7,3 13 7 27 15 SW 1000,3 0 0,0
26.10.2020 01:00:00 9,6 7,7 14 8 24 13 SW 1000,9 0 0,0
26.10.2020 00:00:00 9,8 7,9 13 7 22 12 SSW 1000,9 0 0,0
25.10.2020 23:00:00 9,8 7,7 11 6 29 15 SSW 1000,8 0 0,0
25.10.2020 22:00:00 10,8 7,9 19 10 29 16 SSW 1000,7 0 0,0
25.10.2020 21:00:00 11,1 8,9 22 12 37 20 SSW 1001,0 0 0,0
25.10.2020 20:00:00 11,0 8,6 17 9 29 15 SSW 1001,1 0 0,0
25.10.2020 19:00:00 10,7 8,4 14 8 31 17 SSW 1001,2 0 0,0
25.10.2020 18:00:00 11,4 8,7 18 10 31 17 SSW 1001,4 0 0,0
25.10.2020 17:00:00 12,0 9,0 22 12 32 18 SSW 1001,1 29 0,0
25.10.2020 16:00:00 12,1 9,2 19 10 36 20 SSW 1000,9 0 0,0
25.10.2020 15:00:00 12,2 9,3 22 12 31 17 SSW 1001,0 0 0,0
25.10.2020 14:00:00 12,5 9,5 21 11 39 21 SSW 1001,4 0 0,0
25.10.2020 13:00:00 12,6 9,7 22 12 34 18 SSW 1002,1 0 0,0
25.10.2020 12:00:00 12,2 9,8 16 9 36 19 SSW 1001,4 0 0,0
25.10.2020 11:00:00 12,3 10,0 18 10 29 16 SSW 1002,0 0 0,0
25.10.2020 10:00:00 12,2 10,2 16 9 26 14 SSW 1001,6 0 0,0
25.10.2020 09:00:00 11,9 9,6 14 7 29 16 SW 1002,3 0 0,0
25.10.2020 08:00:00 11,5 9,5 20 11 33 18 SSW 1001,8 0 0,0
25.10.2020 07:00:00 11,2 9,2 22 12 36 20 SSW 1001,2 0 0,3
25.10.2020 06:00:00 11,2 9,5 18 10 27 15 SSW 1001,9 0 0,2
25.10.2020 05:00:00 11,5 9,6 22 12 58 31 SW 1001,7 0 2,0
25.10.2020 04:00:00 14,9 10,4 32 17 62 33 SSW 1001,0 0 0,1
25.10.2020 03:00:00 15,0 10,4 32 17 64 35 SSW 1001,3 0 0,1
25.10.2020 02:00:00 15,1 10,6 39 21 58 31 SSW 1002,2 0 0,1
25.10.2020 01:00:00 - - - - - - - - - -
25.10.2020 00:00:00 15,5 11,7 34 18 59 32 SSW 1003,5 0 0,0
24.10.2020 23:00:00 15,7 11,8 37 20 61 33 SSW 1004,0 0 0,0
24.10.2020 22:00:00 15,8 12,0 33 18 55 30 SSW 1004,5 0 0,1
24.10.2020 21:00:00 15,8 12,3 32 18 57 31 SSW 1004,9 0 0,1
24.10.2020 20:00:00 15,6 12,6 31 17 46 25 SSW 1005,8 0 0,0
24.10.2020 19:00:00 15,1 12,8 32 18 50 27 S 1006,5 0 0,1
24.10.2020 18:00:00 15,1 12,2 25 13 39 21 S 1007,0 0 0,0
24.10.2020 17:00:00 15,4 12,3 26 14 41 22 SSW 1007,9 0 0,0
24.10.2020 16:00:00 15,6 12,4 24 13 47 26 SSW 1008,7 11 0,0
24.10.2020 15:00:00 15,8 12,5 25 14 42 23 SSW 1008,9 19 0,0
24.10.2020 14:00:00 15,0 12,7 24 13 42 23 SSW 1009,7 14 0,0
24.10.2020 13:00:00 14,7 12,1 24 13 47 26 SSW 1010,6 4 0,0
24.10.2020 12:00:00 15,0 11,4 26 14 48 26 SSW 1011,1 39 0,0
24.10.2020 11:00:00 14,3 11,1 24 13 45 24 SW 1011,4 40 0,0
24.10.2020 10:00:00 13,1 11,1 25 13 38 21 SW 1011,6 22 0,0
24.10.2020 09:00:00 12,3 11,0 20 11 34 19 SSW 1011,6 0 0,1
24.10.2020 08:00:00 12,2 10,8 21 12 37 20 SW 1011,5 0 0,0
24.10.2020 07:00:00 12,1 10,6 22 12 38 20 SSW 1011,5 0 0,0
24.10.2020 06:00:00 12,4 10,2 16 8 26 14 SSW 1011,8 0 0,0
24.10.2020 05:00:00 12,1 9,9 15 8 29 15 SW 1012,1 0 0,0
24.10.2020 04:00:00 12,7 10,1 15 8 25 14 SW 1012,4 0 0,0
24.10.2020 03:00:00 12,4 9,9 12 6 27 15 SW 1012,7 0 0,0
24.10.2020 02:00:00 12,6 10,2 16 9 29 16 SW 1012,8 0 0,0
24.10.2020 01:00:00 12,5 10,3 14 8 26 14 SW 1012,6 0 0,0
24.10.2020 00:00:00 12,5 10,6 14 8 27 15 SW 1012,6 0 0,0
23.10.2020 23:00:00 12,4 10,5 10 5 20 11 SW 1012,9 0 0,0
23.10.2020 22:00:00 13,0 10,5 13 7 32 17 WSW 1012,5 0 0,0
23.10.2020 21:00:00 13,7 10,9 14 8 27 14 W 1011,6 0 0,0
23.10.2020 20:00:00 14,2 10,4 10 6 19 11 WSW 1011,2 0 0,0
23.10.2020 19:00:00 13,8 10,5 7 4 13 7 SW 1011,0 0 0,0
23.10.2020 18:00:00 14,7 11,4 7 4 19 10 SW 1010,7 0 0,0
23.10.2020 17:00:00 16,0 12,0 13 7 22 12 SW 1010,3 4 0,0
23.10.2020 16:00:00 17,1 12,3 15 8 26 14 SW 1010,1 60 0,0
23.10.2020 15:00:00 16,9 12,1 17 9 28 15 SW 1009,9 60 0,0
23.10.2020 14:00:00 16,9 13,4 18 10 31 17 SW 1010,1 49 0,0
23.10.2020 13:00:00 16,1 13,7 14 8 27 15 SW 1010,4 29 0,0
23.10.2020 12:00:00 14,5 13,5 16 9 25 14 SW 1010,8 1 0,0
23.10.2020 11:00:00 13,8 13,2 11 6 19 11 SW 1010,8 0 0,0
23.10.2020 10:00:00 13,4 13,1 10 5 18 10 SW 1010,9 0 0,0
23.10.2020 09:00:00 12,9 12,6 6 3 13 7 SSW 1010,8 0 0,0
23.10.2020 08:00:00 12,2 11,9 6 3 14 7 S 1010,6 0 0,0
23.10.2020 07:00:00 9,0 8,5 4 2 4 2 S 1010,6 0 0,0
23.10.2020 06:00:00 7,5 7,1 4 2 7 4 NW 1010,9 0 0,0
23.10.2020 05:00:00 8,1 7,7 4 2 7 4 SE 1011,1 0 0,0
23.10.2020 04:00:00 9,6 9,2 5 3 8 4 SSW 1011,5 0 0,0
23.10.2020 03:00:00 8,3 7,7 4 2 6 3 E 1012,2 0 0,0
23.10.2020 02:00:00 9,4 9,0 4 2 7 4 WSW 1012,4 0 0,0
23.10.2020 01:00:00 9,7 9,0 4 2 9 5 SSW 1012,8 0 0,0
23.10.2020 00:00:00 10,4 9,8 4 2 7 4 SSW 1012,7 0 0,0
22.10.2020 23:00:00 11,3 10,6 5 3 9 5 WSW 1012,9 0 0,0
22.10.2020 22:00:00 11,1 10,3 4 2 9 5 W 1012,7 0 0,0
22.10.2020 21:00:00 12,7 11,7 8 4 12 7 WSW 1012,5 0 0,0
22.10.2020 20:00:00 13,3 12,1 6 3 11 6 W 1012,4 0 0,0
22.10.2020 19:00:00 14,1 12,4 7 4 11 6 SW 1012,1 0 0,0
22.10.2020 18:00:00 14,7 12,3 7 4 19 11 SW 1011,6 20 0,0
22.10.2020 17:00:00 16,5 12,8 11 6 27 15 SW 1011,2 59 0,0
22.10.2020 16:00:00 16,7 12,8 14 8 24 13 SW 1011,3 46 0,0
22.10.2020 15:00:00 16,2 12,0 13 7 23 12 WSW 1011,3 0 0,0
22.10.2020 14:00:00 15,8 12,5 10 6 36 20 WSW 1011,5 0 0,3
22.10.2020 13:00:00 16,1 13,2 14 8 26 14 WSW 1011,7 0 0,0
22.10.2020 12:00:00 16,1 13,0 20 11 33 18 SW 1012,0 34 0,0
22.10.2020 11:00:00 15,8 11,9 15 8 30 16 SW 1011,7 29 0,0
22.10.2020 10:00:00 15,0 11,6 16 9 29 16 SW 1012,0 27 0,0
22.10.2020 09:00:00 13,3 11,0 11 6 16 8 S 1011,3 26 0,0
22.10.2020 08:00:00 11,5 9,9 9 5 19 10 S 1010,8 13 0,0
22.10.2020 07:00:00 12,0 10,0 11 6 20 11 SSW 1010,2 0 0,0
22.10.2020 06:00:00 12,7 10,5 11 6 24 13 SW 1009,8 0 0,0
22.10.2020 05:00:00 13,3 11,0 14 7 27 15 SW 1009,8 0 0,0
22.10.2020 04:00:00 13,9 11,4 16 9 31 17 SW 1009,8 0 0,0
22.10.2020 03:00:00 13,9 11,3 15 8 26 14 SSW 1009,2 0 0,0
22.10.2020 02:00:00 14,5 11,7 17 9 30 16 SW 1009,0 0 0,0
22.10.2020 01:00:00 14,9 12,3 14 8 26 14 SW 1008,5 0 0,0
22.10.2020 00:00:00 15,7 12,9 16 9 30 16 SW 1008,0 0 0,0
21.10.2020 23:00:00 15,9 13,1 16 9 28 15 SW 1007,5 0 0,0
21.10.2020 22:00:00 15,6 12,8 13 7 29 16 SW 1006,9 0 0,0
21.10.2020 21:00:00 16,5 12,8 15 8 44 24 WSW 1006,1 0 0,0
21.10.2020 20:00:00 17,7 12,2 26 14 52 28 WSW 1005,0 0 0,0
21.10.2020 19:00:00 18,5 11,6 29 16 64 34 WSW 1003,4 0 0,0
21.10.2020 18:00:00 18,9 12,4 29 16 68 37 SW 1001,9 2 0,0
21.10.2020 17:00:00 19,5 12,6 35 19 64 34 SW 1000,5 3 0,0
21.10.2020 16:00:00 20,1 12,4 45 24 80 43 SW 999,7 25 0,1
21.10.2020 15:00:00 20,7 13,1 45 24 84 45 SW 998,7 57 0,1
21.10.2020 14:00:00 20,6 13,3 45 24 81 44 SW 997,8 44 0,1
21.10.2020 13:00:00 19,6 12,8 36 19 79 43 SSW 997,5 47 0,1
21.10.2020 12:00:00 19,5 12,1 49 26 84 45 SSW 997,9 37 0,0
21.10.2020 11:00:00 16,5 11,5 23 12 46 25 S 998,2 8 0,0
21.10.2020 10:00:00 14,0 11,7 20 11 42 23 SSE 999,3 0 0,2
21.10.2020 09:00:00 13,2 11,8 22 12 41 22 S 1000,5 0 1,9
21.10.2020 08:00:00 13,0 11,6 16 9 34 18 S 1000,8 0 1,7
21.10.2020 07:00:00 12,7 11,6 14 8 27 15 SSE 1001,4 0 2,1
21.10.2020 06:00:00 12,8 11,8 11 6 29 16 SSE 1002,1 0 2,4
21.10.2020 05:00:00 13,1 12,0 13 7 28 15 SSE 1002,3 0 1,1
21.10.2020 04:00:00 13,5 12,2 13 7 26 14 SSE 1003,0 0 0,4
21.10.2020 03:00:00 13,7 12,3 14 8 23 12 S 1003,6 0 0,4
21.10.2020 02:00:00 14,0 12,4 9 5 22 12 SSE 1004,7 0 0,1
21.10.2020 01:00:00 14,3 12,4 11 6 22 12 S 1005,1 0 0,0
21.10.2020 00:00:00 14,5 12,5 14 7 27 15 S 1005,5 0 0,0
20.10.2020 23:00:00 14,6 12,8 13 7 32 17 S 1006,1 0 0,0
20.10.2020 22:00:00 14,7 12,7 18 10 31 17 S 1006,5 0 0,0
20.10.2020 21:00:00 14,5 12,8 18 10 29 16 S 1006,5 0 0,1
20.10.2020 20:00:00 14,5 12,8 21 11 38 21 S 1006,9 0 0,3
20.10.2020 19:00:00 14,8 12,6 22 12 34 19 SSW 1007,2 0 0,0
20.10.2020 18:00:00 15,2 12,4 15 8 30 16 S 1007,1 0 0,0
20.10.2020 17:00:00 15,3 12,1 20 11 39 21 SSW 1007,1 0 0,0
20.10.2020 16:00:00 15,4 11,6 22 12 41 22 SW 1007,8 0 0,0
20.10.2020 15:00:00 15,2 10,9 26 14 41 22 S 1007,1 0 0,1
20.10.2020 14:00:00 15,3 10,5 16 9 38 20 SSW 1007,7 0 0,0
20.10.2020 13:00:00 14,9 10,6 20 11 36 20 SSW 1007,8 0 0,0
20.10.2020 12:00:00 14,7 10,5 18 10 31 17 SSW 1007,9 0 0,0
20.10.2020 11:00:00 13,6 9,8 16 8 29 16 S 1007,9 0 0,0

tt = temperature
td = dewpoint
ff = wind speed
fx = gusts
dd = wind direction
ppp = reduced air pressure
sd = sunshine duration
rr = precipitation

Next stations